sensor_id;sensor_type;location;lat;lon;timestamp;pressure;altitude;pressure_sealevel;temperature;humidity
27864;BME280;15980;51.092;13.916;2024-03-02T00:07:16;97632.50;;;9.51;100.00
27864;BME280;15980;51.092;13.916;2024-03-02T00:17:23;97622.44;;;9.55;100.00
27864;BME280;15980;51.092;13.916;2024-03-02T00:27:24;97628.16;;;9.50;100.00
27864;BME280;15980;51.092;13.916;2024-03-02T00:37:24;97625.34;;;9.47;100.00
27864;BME280;15980;51.092;13.916;2024-03-02T00:47:25;97620.97;;;9.42;100.00
27864;BME280;15980;51.092;13.916;2024-03-02T00:57:27;97625.00;;;9.48;100.00
27864;BME280;15980;51.092;13.916;2024-03-02T01:07:28;97637.09;;;9.47;100.00
27864;BME280;15980;51.092;13.916;2024-03-02T01:17:29;97624.63;;;9.50;100.00
27864;BME280;15980;51.092;13.916;2024-03-02T01:27:29;97619.59;;;9.52;100.00
27864;BME280;15980;51.092;13.916;2024-03-02T01:37:29;97619.34;;;9.57;100.00
27864;BME280;15980;51.092;13.916;2024-03-02T01:47:29;97617.81;;;9.59;99.34
27864;BME280;15980;51.092;13.916;2024-03-02T01:57:30;97620.38;;;9.52;100.00
27864;BME280;15980;51.092;13.916;2024-03-02T02:07:30;97610.47;;;9.63;99.74
27864;BME280;15980;51.092;13.916;2024-03-02T02:17:30;97609.53;;;9.56;99.25
27864;BME280;15980;51.092;13.916;2024-03-02T02:27:31;97612.69;;;9.58;99.87
27864;BME280;15980;51.092;13.916;2024-03-02T02:37:31;97615.00;;;9.56;99.90
27864;BME280;15980;51.092;13.916;2024-03-02T02:47:31;97607.06;;;9.51;100.00
27864;BME280;15980;51.092;13.916;2024-03-02T02:57:32;97608.28;;;9.53;100.00
27864;BME280;15980;51.092;13.916;2024-03-02T03:07:33;97599.63;;;9.51;100.00
27864;BME280;15980;51.092;13.916;2024-03-02T03:17:34;97613.75;;;9.53;99.97
27864;BME280;15980;51.092;13.916;2024-03-02T03:27:34;97610.94;;;9.50;100.00
27864;BME280;15980;51.092;13.916;2024-03-02T03:37:35;97616.06;;;9.51;100.00
27864;BME280;15980;51.092;13.916;2024-03-02T03:47:35;97605.41;;;9.46;99.73
27864;BME280;15980;51.092;13.916;2024-03-02T03:57:35;97599.91;;;9.27;99.62
27864;BME280;15980;51.092;13.916;2024-03-02T04:07:37;97604.97;;;9.09;100.00
27864;BME280;15980;51.092;13.916;2024-03-02T04:17:37;97599.44;;;9.05;100.00
27864;BME280;15980;51.092;13.916;2024-03-02T04:27:38;97603.81;;;8.59;100.00
27864;BME280;15980;51.092;13.916;2024-03-02T04:37:38;97626.94;;;8.46;100.00
27864;BME280;15980;51.092;13.916;2024-03-02T04:47:39;97639.81;;;8.45;100.00
27864;BME280;15980;51.092;13.916;2024-03-02T04:57:39;97640.50;;;8.58;100.00
27864;BME280;15980;51.092;13.916;2024-03-02T05:07:39;97645.53;;;8.88;100.00
27864;BME280;15980;51.092;13.916;2024-03-02T05:17:41;97652.22;;;8.90;100.00
27864;BME280;15980;51.092;13.916;2024-03-02T05:27:41;97651.88;;;8.92;100.00
27864;BME280;15980;51.092;13.916;2024-03-02T05:37:41;97668.03;;;8.97;100.00
27864;BME280;15980;51.092;13.916;2024-03-02T05:47:42;97685.84;;;9.06;100.00
27864;BME280;15980;51.092;13.916;2024-03-02T05:57:42;97685.03;;;9.06;100.00
27864;BME280;15980;51.092;13.916;2024-03-02T06:07:43;97709.22;;;9.04;100.00
27864;BME280;15980;51.092;13.916;2024-03-02T06:17:43;97715.84;;;9.03;100.00
27864;BME280;15980;51.092;13.916;2024-03-02T06:27:43;97720.53;;;9.02;100.00
27864;BME280;15980;51.092;13.916;2024-03-02T06:37:43;97733.84;;;9.04;100.00
27864;BME280;15980;51.092;13.916;2024-03-02T06:47:44;97747.09;;;9.02;100.00
27864;BME280;15980;51.092;13.916;2024-03-02T06:57:44;97755.38;;;9.05;100.00
27864;BME280;15980;51.092;13.916;2024-03-02T07:07:44;97760.06;;;9.05;100.00
27864;BME280;15980;51.092;13.916;2024-03-02T07:17:45;97769.63;;;9.11;100.00
27864;BME280;15980;51.092;13.916;2024-03-02T07:27:45;97777.03;;;9.10;99.42
27864;BME280;15980;51.092;13.916;2024-03-02T07:37:45;97783.31;;;9.11;98.36
27864;BME280;15980;51.092;13.916;2024-03-02T07:47:46;97793.91;;;9.12;98.04
27864;BME280;15980;51.092;13.916;2024-03-02T07:57:47;97809.72;;;9.19;97.47
27864;BME280;15980;51.092;13.916;2024-03-02T08:07:47;97814.28;;;9.15;97.18
27864;BME280;15980;51.092;13.916;2024-03-02T08:17:48;97829.66;;;9.20;96.38
27864;BME280;15980;51.092;13.916;2024-03-02T08:27:48;97828.34;;;9.29;95.97
27864;BME280;15980;51.092;13.916;2024-03-02T08:37:48;97837.44;;;9.33;95.06
27864;BME280;15980;51.092;13.916;2024-03-02T08:47:49;97841.13;;;9.41;94.71
27864;BME280;15980;51.092;13.916;2024-03-02T08:57:49;97827.34;;;9.69;93.91
27864;BME280;15980;51.092;13.916;2024-03-02T09:07:49;97832.59;;;9.93;92.31
27864;BME280;15980;51.092;13.916;2024-03-02T09:17:49;97840.97;;;10.16;90.99
27864;BME280;15980;51.092;13.916;2024-03-02T09:27:50;97852.78;;;10.36;89.68
27864;BME280;15980;51.092;13.916;2024-03-02T09:37:50;97867.97;;;10.49;88.30
27864;BME280;15980;51.092;13.916;2024-03-02T09:47:51;97873.59;;;10.56;86.88
27864;BME280;15980;51.092;13.916;2024-03-02T09:57:51;97868.31;;;10.67;86.49
27864;BME280;15980;51.092;13.916;2024-03-02T10:08:01;97862.03;;;11.05;84.90
27864;BME280;15980;51.092;13.916;2024-03-02T10:18:02;97852.28;;;11.76;81.64
27864;BME280;15980;51.092;13.916;2024-03-02T10:28:03;97838.25;;;12.08;80.22
27864;BME280;15980;51.092;13.916;2024-03-02T10:38:04;97836.91;;;11.72;80.68
27864;BME280;15980;51.092;13.916;2024-03-02T10:48:05;97831.91;;;12.04;79.43
27864;BME280;15980;51.092;13.916;2024-03-02T10:58:06;97830.97;;;12.19;77.42
27864;BME280;15980;51.092;13.916;2024-03-02T11:08:11;97819.06;;;12.71;75.76
27864;BME280;15980;51.092;13.916;2024-03-02T11:18:13;97825.63;;;13.34;73.75
27864;BME280;15980;51.092;13.916;2024-03-02T11:28:14;97814.16;;;13.72;71.68
27864;BME280;15980;51.092;13.916;2024-03-02T11:38:14;97825.88;;;13.59;71.93
27864;BME280;15980;51.092;13.916;2024-03-02T11:48:15;97813.44;;;13.35;71.98
27864;BME280;15980;51.092;13.916;2024-03-02T11:58:16;97814.25;;;12.65;74.16
27864;BME280;15980;51.092;13.916;2024-03-02T12:08:17;97820.91;;;12.30;74.07
27864;BME280;15980;51.092;13.916;2024-03-02T12:18:17;97818.25;;;12.11;74.78
27864;BME280;15980;51.092;13.916;2024-03-02T12:28:17;97815.69;;;12.21;74.05
27864;BME280;15980;51.092;13.916;2024-03-02T12:38:19;97806.59;;;12.51;72.42
27864;BME280;15980;51.092;13.916;2024-03-02T12:48:19;97813.56;;;12.71;72.71
27864;BME280;15980;51.092;13.916;2024-03-02T12:58:20;97806.16;;;12.45;72.42
27864;BME280;15980;51.092;13.916;2024-03-02T13:08:20;97800.59;;;12.72;72.12
27864;BME280;15980;51.092;13.916;2024-03-02T13:18:21;97800.53;;;13.02;70.92
27864;BME280;15980;51.092;13.916;2024-03-02T13:28:22;97796.47;;;12.92;69.38
27864;BME280;15980;51.092;13.916;2024-03-02T13:38:22;97803.16;;;13.28;69.75
27864;BME280;15980;51.092;13.916;2024-03-02T13:48:23;97803.88;;;13.22;68.45
27864;BME280;15980;51.092;13.916;2024-03-02T13:58:23;97800.59;;;13.09;69.54
27864;BME280;15980;51.092;13.916;2024-03-02T14:08:23;97790.78;;;13.11;68.15
27864;BME280;15980;51.092;13.916;2024-03-02T14:18:23;97787.84;;;12.94;68.79
27864;BME280;15980;51.092;13.916;2024-03-02T14:28:24;97789.84;;;12.60;69.66
27864;BME280;15980;51.092;13.916;2024-03-02T14:38:24;97796.66;;;12.39;70.04
27864;BME280;15980;51.092;13.916;2024-03-02T14:48:24;97794.78;;;12.17;70.50
27864;BME280;15980;51.092;13.916;2024-03-02T14:58:25;97791.41;;;12.01;71.17
27864;BME280;15980;51.092;13.916;2024-03-02T15:08:25;97778.31;;;11.90;72.07
27864;BME280;15980;51.092;13.916;2024-03-02T15:18:26;97775.56;;;11.90;72.66
27864;BME280;15980;51.092;13.916;2024-03-02T15:28:26;97777.75;;;11.55;72.36
27864;BME280;15980;51.092;13.916;2024-03-02T15:38:27;97763.47;;;11.46;73.99
27864;BME280;15980;51.092;13.916;2024-03-02T15:48:27;97761.31;;;11.32;75.20
27864;BME280;15980;51.092;13.916;2024-03-02T15:58:27;97761.53;;;11.23;75.98
27864;BME280;15980;51.092;13.916;2024-03-02T16:08:28;97755.69;;;11.02;77.93
27864;BME280;15980;51.092;13.916;2024-03-02T16:18:28;97744.31;;;10.81;77.65
27864;BME280;15980;51.092;13.916;2024-03-02T16:28:28;97744.78;;;10.41;79.26
27864;BME280;15980;51.092;13.916;2024-03-02T16:38:28;97749.72;;;10.16;80.67
27864;BME280;15980;51.092;13.916;2024-03-02T16:48:29;97744.66;;;9.98;81.17
27864;BME280;15980;51.092;13.916;2024-03-02T16:58:29;97757.31;;;9.87;82.48
27864;BME280;15980;51.092;13.916;2024-03-02T17:08:30;97752.69;;;9.91;83.19
27864;BME280;15980;51.092;13.916;2024-03-02T17:18:30;97765.03;;;9.82;82.77
27864;BME280;15980;51.092;13.916;2024-03-02T17:28:30;97776.59;;;9.56;84.07
27864;BME280;15980;51.092;13.916;2024-03-02T17:38:31;97769.69;;;9.30;84.37
27864;BME280;15980;51.092;13.916;2024-03-02T17:48:32;97767.31;;;8.81;85.38
27864;BME280;15980;51.092;13.916;2024-03-02T17:58:32;97772.97;;;8.33;87.10
27864;BME280;15980;51.092;13.916;2024-03-02T18:08:32;97766.97;;;7.87;88.75
27864;BME280;15980;51.092;13.916;2024-03-02T18:18:32;97770.00;;;7.45;90.04
27864;BME280;15980;51.092;13.916;2024-03-02T18:28:33;97757.69;;;7.15;91.15
27864;BME280;15980;51.092;13.916;2024-03-02T18:38:33;97747.88;;;6.89;91.91
27864;BME280;15980;51.092;13.916;2024-03-02T18:48:33;97762.28;;;6.66;92.42
27864;BME280;15980;51.092;13.916;2024-03-02T18:58:34;97756.75;;;6.41;92.92
27864;BME280;15980;51.092;13.916;2024-03-02T19:08:34;97761.72;;;6.06;92.92
27864;BME280;15980;51.092;13.916;2024-03-02T19:18:34;97750.09;;;5.97;93.89
27864;BME280;15980;51.092;13.916;2024-03-02T19:28:34;97745.50;;;5.89;94.51
27864;BME280;15980;51.092;13.916;2024-03-02T19:38:35;97735.47;;;5.81;94.95
27864;BME280;15980;51.092;13.916;2024-03-02T19:48:35;97724.72;;;5.84;95.31
27864;BME280;15980;51.092;13.916;2024-03-02T19:58:35;97712.69;;;5.85;95.79
27864;BME280;15980;51.092;13.916;2024-03-02T20:08:36;97699.38;;;5.92;98.51
27864;BME280;15980;51.092;13.916;2024-03-02T20:18:37;97684.47;;;6.11;100.00
27864;BME280;15980;51.092;13.916;2024-03-02T20:28:37;97675.63;;;6.71;100.00
27864;BME280;15980;51.092;13.916;2024-03-02T20:38:38;97661.84;;;7.29;100.00
27864;BME280;15980;51.092;13.916;2024-03-02T20:48:38;97660.94;;;7.77;99.97
27864;BME280;15980;51.092;13.916;2024-03-02T20:58:38;97652.38;;;7.91;98.43
27864;BME280;15980;51.092;13.916;2024-03-02T21:08:39;97645.16;;;7.98;98.53
27864;BME280;15980;51.092;13.916;2024-03-02T21:18:39;97652.22;;;7.99;98.23
27864;BME280;15980;51.092;13.916;2024-03-02T21:28:39;97653.34;;;7.98;97.77
27864;BME280;15980;51.092;13.916;2024-03-02T21:38:39;97656.44;;;7.97;97.76
27864;BME280;15980;51.092;13.916;2024-03-02T21:48:40;97651.31;;;7.95;98.14
27864;BME280;15980;51.092;13.916;2024-03-02T21:58:40;97646.31;;;8.13;97.98
27864;BME280;15980;51.092;13.916;2024-03-02T22:08:40;97643.44;;;8.22;96.79
27864;BME280;15980;51.092;13.916;2024-03-02T22:18:41;97639.56;;;8.23;96.23
27864;BME280;15980;51.092;13.916;2024-03-02T22:28:41;97642.63;;;8.21;95.46
27864;BME280;15980;51.092;13.916;2024-03-02T22:38:41;97637.06;;;8.02;95.59
27864;BME280;15980;51.092;13.916;2024-03-02T22:48:41;97643.38;;;7.90;95.33
27864;BME280;15980;51.092;13.916;2024-03-02T22:58:42;97632.72;;;7.85;96.47
27864;BME280;15980;51.092;13.916;2024-03-02T23:08:42;97633.97;;;8.03;95.97
27864;BME280;15980;51.092;13.916;2024-03-02T23:18:43;97624.56;;;8.16;94.27
27864;BME280;15980;51.092;13.916;2024-03-02T23:28:43;97614.94;;;8.07;93.51
27864;BME280;15980;51.092;13.916;2024-03-02T23:38:43;97597.31;;;8.04;93.36
27864;BME280;15980;51.092;13.916;2024-03-02T23:48:44;97595.38;;;8.05;93.05
27864;BME280;15980;51.092;13.916;2024-03-02T23:58:44;97605.34;;;8.13;92.04
